sensor_id;sensor_type;location;lat;lon;timestamp;P1;durP1;ratioP1;P2;durP2;ratioP2
75044;SDS011;63614;56.026;35.960;2022-10-16T00:01:20;6.50;;;3.38;;
75044;SDS011;63614;56.026;35.960;2022-10-16T00:03:48;12.45;;;4.00;;
75044;SDS011;63614;56.026;35.960;2022-10-16T00:06:15;7.38;;;3.55;;
75044;SDS011;63614;56.026;35.960;2022-10-16T00:08:42;8.13;;;3.90;;
75044;SDS011;63614;56.026;35.960;2022-10-16T00:11:13;10.90;;;3.88;;
75044;SDS011;63614;56.026;35.960;2022-10-16T00:13:49;7.97;;;3.70;;
75044;SDS011;63614;56.026;35.960;2022-10-16T00:16:17;11.48;;;4.05;;
75044;SDS011;63614;56.026;35.960;2022-10-16T00:18:43;11.68;;;4.00;;
75044;SDS011;63614;56.026;35.960;2022-10-16T00:21:11;7.78;;;3.90;;
75044;SDS011;63614;56.026;35.960;2022-10-16T00:24:05;7.93;;;3.90;;
75044;SDS011;63614;56.026;35.960;2022-10-16T00:26:34;9.98;;;4.07;;
75044;SDS011;63614;56.026;35.960;2022-10-16T00:29:01;12.80;;;3.95;;
75044;SDS011;63614;56.026;35.960;2022-10-16T00:31:28;6.60;;;4.18;;
75044;SDS011;63614;56.026;35.960;2022-10-16T00:33:54;7.93;;;4.03;;
75044;SDS011;63614;56.026;35.960;2022-10-16T00:36:22;7.85;;;4.40;;
75044;SDS011;63614;56.026;35.960;2022-10-16T00:38:53;12.02;;;3.88;;
75044;SDS011;63614;56.026;35.960;2022-10-16T00:41:21;7.28;;;3.90;;
75044;SDS011;63614;56.026;35.960;2022-10-16T00:49:05;9.23;;;4.15;;
75044;SDS011;63614;56.026;35.960;2022-10-16T00:51:38;7.40;;;4.30;;
75044;SDS011;63614;56.026;35.960;2022-10-16T00:54:10;6.45;;;3.80;;
75044;SDS011;63614;56.026;35.960;2022-10-16T00:56:40;8.23;;;3.63;;
75044;SDS011;63614;56.026;35.960;2022-10-16T00:59:18;10.93;;;4.27;;
75044;SDS011;63614;56.026;35.960;2022-10-16T01:01:48;10.50;;;4.03;;
75044;SDS011;63614;56.026;35.960;2022-10-16T01:04:14;9.00;;;3.90;;
75044;SDS011;63614;56.026;35.960;2022-10-16T01:06:46;7.78;;;4.03;;
75044;SDS011;63614;56.026;35.960;2022-10-16T01:12:16;9.85;;;4.28;;
75044;SDS011;63614;56.026;35.960;2022-10-16T01:14:58;14.30;;;4.30;;
75044;SDS011;63614;56.026;35.960;2022-10-16T01:17:43;8.85;;;4.00;;
75044;SDS011;63614;56.026;35.960;2022-10-16T01:25:28;17.98;;;4.28;;
75044;SDS011;63614;56.026;35.960;2022-10-16T01:28:05;13.88;;;4.50;;
75044;SDS011;63614;56.026;35.960;2022-10-16T01:30:35;8.68;;;4.10;;
75044;SDS011;63614;56.026;35.960;2022-10-16T01:33:05;11.40;;;4.60;;
75044;SDS011;63614;56.026;35.960;2022-10-16T01:35:46;8.32;;;4.20;;
75044;SDS011;63614;56.026;35.960;2022-10-16T01:40:52;7.60;;;4.38;;
75044;SDS011;63614;56.026;35.960;2022-10-16T01:43:28;7.78;;;3.83;;
75044;SDS011;63614;56.026;35.960;2022-10-16T01:45:58;13.10;;;4.35;;
75044;SDS011;63614;56.026;35.960;2022-10-16T01:51:05;13.80;;;4.10;;
75044;SDS011;63614;56.026;35.960;2022-10-16T01:53:35;11.98;;;4.53;;
75044;SDS011;63614;56.026;35.960;2022-10-16T01:56:02;10.97;;;4.43;;
75044;SDS011;63614;56.026;35.960;2022-10-16T01:58:30;7.47;;;4.10;;
75044;SDS011;63614;56.026;35.960;2022-10-16T02:01:01;9.18;;;4.40;;
75044;SDS011;63614;56.026;35.960;2022-10-16T02:03:29;9.95;;;4.35;;
75044;SDS011;63614;56.026;35.960;2022-10-16T02:08:24;7.47;;;4.03;;
75044;SDS011;63614;56.026;35.960;2022-10-16T02:10:54;11.52;;;4.70;;
75044;SDS011;63614;56.026;35.960;2022-10-16T02:16:07;11.55;;;4.78;;
75044;SDS011;63614;56.026;35.960;2022-10-16T02:18:34;9.43;;;4.75;;
75044;SDS011;63614;56.026;35.960;2022-10-16T02:21:09;7.82;;;4.38;;
75044;SDS011;63614;56.026;35.960;2022-10-16T02:26:25;15.65;;;4.90;;
75044;SDS011;63614;56.026;35.960;2022-10-16T02:28:59;9.15;;;4.05;;
75044;SDS011;63614;56.026;35.960;2022-10-16T02:31:31;7.65;;;4.32;;
75044;SDS011;63614;56.026;35.960;2022-10-16T02:34:01;7.57;;;4.57;;
75044;SDS011;63614;56.026;35.960;2022-10-16T02:36:30;10.18;;;4.43;;
75044;SDS011;63614;56.026;35.960;2022-10-16T02:41:25;6.82;;;4.30;;
75044;SDS011;63614;56.026;35.960;2022-10-16T02:43:51;14.13;;;4.78;;
75044;SDS011;63614;56.026;35.960;2022-10-16T02:46:17;14.50;;;4.93;;
75044;SDS011;63614;56.026;35.960;2022-10-16T02:48:44;11.77;;;4.68;;
75044;SDS011;63614;56.026;35.960;2022-10-16T02:51:09;7.28;;;4.80;;
75044;SDS011;63614;56.026;35.960;2022-10-16T02:53:35;14.02;;;4.32;;
75044;SDS011;63614;56.026;35.960;2022-10-16T02:56:01;7.70;;;4.60;;
75044;SDS011;63614;56.026;35.960;2022-10-16T02:58:27;7.63;;;4.65;;
75044;SDS011;63614;56.026;35.960;2022-10-16T03:00:53;12.18;;;4.43;;
75044;SDS011;63614;56.026;35.960;2022-10-16T03:03:20;12.40;;;4.90;;
75044;SDS011;63614;56.026;35.960;2022-10-16T03:05:46;10.77;;;4.80;;
75044;SDS011;63614;56.026;35.960;2022-10-16T03:08:12;12.05;;;4.97;;
75044;SDS011;63614;56.026;35.960;2022-10-16T03:10:38;16.95;;;4.75;;
75044;SDS011;63614;56.026;35.960;2022-10-16T03:13:04;12.55;;;5.38;;
75044;SDS011;63614;56.026;35.960;2022-10-16T03:15:30;18.63;;;5.10;;
75044;SDS011;63614;56.026;35.960;2022-10-16T03:17:59;9.35;;;4.60;;
75044;SDS011;63614;56.026;35.960;2022-10-16T03:20:25;12.43;;;5.30;;
75044;SDS011;63614;56.026;35.960;2022-10-16T03:22:52;11.30;;;4.80;;
75044;SDS011;63614;56.026;35.960;2022-10-16T03:25:17;8.85;;;5.05;;
75044;SDS011;63614;56.026;35.960;2022-10-16T03:27:43;11.98;;;5.00;;
75044;SDS011;63614;56.026;35.960;2022-10-16T03:30:09;8.40;;;5.00;;
75044;SDS011;63614;56.026;35.960;2022-10-16T03:32:35;13.40;;;5.18;;
75044;SDS011;63614;56.026;35.960;2022-10-16T03:35:01;10.00;;;4.43;;
75044;SDS011;63614;56.026;35.960;2022-10-16T03:37:28;11.05;;;4.80;;
75044;SDS011;63614;56.026;35.960;2022-10-16T03:39:53;9.77;;;5.00;;
75044;SDS011;63614;56.026;35.960;2022-10-16T03:42:20;10.50;;;4.65;;
75044;SDS011;63614;56.026;35.960;2022-10-16T03:44:46;11.60;;;4.53;;
75044;SDS011;63614;56.026;35.960;2022-10-16T03:47:11;10.90;;;4.90;;
75044;SDS011;63614;56.026;35.960;2022-10-16T03:49:37;10.65;;;4.82;;
75044;SDS011;63614;56.026;35.960;2022-10-16T03:52:03;11.98;;;5.05;;
75044;SDS011;63614;56.026;35.960;2022-10-16T03:54:28;14.32;;;5.00;;
75044;SDS011;63614;56.026;35.960;2022-10-16T03:56:54;9.82;;;4.63;;
75044;SDS011;63614;56.026;35.960;2022-10-16T03:59:20;10.95;;;5.00;;
75044;SDS011;63614;56.026;35.960;2022-10-16T04:01:46;9.80;;;4.85;;
75044;SDS011;63614;56.026;35.960;2022-10-16T04:04:12;13.93;;;4.80;;
75044;SDS011;63614;56.026;35.960;2022-10-16T04:06:37;12.38;;;5.20;;
75044;SDS011;63614;56.026;35.960;2022-10-16T04:09:03;10.80;;;5.20;;
75044;SDS011;63614;56.026;35.960;2022-10-16T04:11:29;12.43;;;4.35;;
75044;SDS011;63614;56.026;35.960;2022-10-16T04:13:56;9.95;;;4.75;;
75044;SDS011;63614;56.026;35.960;2022-10-16T04:16:21;12.43;;;5.18;;
75044;SDS011;63614;56.026;35.960;2022-10-16T04:18:47;8.98;;;5.10;;
75044;SDS011;63614;56.026;35.960;2022-10-16T04:21:13;9.02;;;4.78;;
75044;SDS011;63614;56.026;35.960;2022-10-16T04:23:39;10.43;;;4.32;;
75044;SDS011;63614;56.026;35.960;2022-10-16T04:26:04;11.73;;;4.90;;
75044;SDS011;63614;56.026;35.960;2022-10-16T04:28:30;13.25;;;4.97;;
75044;SDS011;63614;56.026;35.960;2022-10-16T04:30:57;12.15;;;5.03;;
75044;SDS011;63614;56.026;35.960;2022-10-16T04:33:22;11.68;;;4.80;;
75044;SDS011;63614;56.026;35.960;2022-10-16T04:35:48;14.48;;;5.10;;
75044;SDS011;63614;56.026;35.960;2022-10-16T04:38:21;11.27;;;5.10;;
75044;SDS011;63614;56.026;35.960;2022-10-16T04:40:46;12.70;;;5.65;;
75044;SDS011;63614;56.026;35.960;2022-10-16T04:43:12;13.57;;;5.93;;
75044;SDS011;63614;56.026;35.960;2022-10-16T04:45:38;12.20;;;5.63;;
75044;SDS011;63614;56.026;35.960;2022-10-16T04:48:04;13.52;;;6.32;;
75044;SDS011;63614;56.026;35.960;2022-10-16T04:50:29;16.05;;;6.55;;
75044;SDS011;63614;56.026;35.960;2022-10-16T04:53:05;15.07;;;6.63;;
75044;SDS011;63614;56.026;35.960;2022-10-16T04:55:32;14.20;;;6.53;;
75044;SDS011;63614;56.026;35.960;2022-10-16T04:57:58;12.25;;;5.78;;
75044;SDS011;63614;56.026;35.960;2022-10-16T05:00:24;17.08;;;6.03;;
75044;SDS011;63614;56.026;35.960;2022-10-16T05:02:50;16.02;;;5.75;;
75044;SDS011;63614;56.026;35.960;2022-10-16T05:05:16;9.40;;;4.97;;
75044;SDS011;63614;56.026;35.960;2022-10-16T05:07:45;11.55;;;5.15;;
75044;SDS011;63614;56.026;35.960;2022-10-16T05:10:11;10.40;;;5.30;;
75044;SDS011;63614;56.026;35.960;2022-10-16T05:12:37;13.68;;;5.07;;
75044;SDS011;63614;56.026;35.960;2022-10-16T05:15:03;13.48;;;5.00;;
75044;SDS011;63614;56.026;35.960;2022-10-16T05:17:29;17.60;;;4.97;;
75044;SDS011;63614;56.026;35.960;2022-10-16T05:19:55;9.50;;;4.80;;
75044;SDS011;63614;56.026;35.960;2022-10-16T05:22:21;11.10;;;4.55;;
75044;SDS011;63614;56.026;35.960;2022-10-16T05:24:47;10.10;;;4.65;;
75044;SDS011;63614;56.026;35.960;2022-10-16T05:27:13;15.65;;;4.75;;
75044;SDS011;63614;56.026;35.960;2022-10-16T05:29:45;11.77;;;4.50;;
75044;SDS011;63614;56.026;35.960;2022-10-16T05:32:14;11.57;;;4.97;;
75044;SDS011;63614;56.026;35.960;2022-10-16T05:34:41;11.23;;;4.63;;
75044;SDS011;63614;56.026;35.960;2022-10-16T05:37:07;8.68;;;3.75;;
75044;SDS011;63614;56.026;35.960;2022-10-16T05:39:33;13.60;;;4.38;;
75044;SDS011;63614;56.026;35.960;2022-10-16T05:41:59;9.32;;;4.63;;
75044;SDS011;63614;56.026;35.960;2022-10-16T05:44:25;11.07;;;4.18;;
75044;SDS011;63614;56.026;35.960;2022-10-16T05:46:51;9.82;;;4.20;;
75044;SDS011;63614;56.026;35.960;2022-10-16T05:49:17;12.95;;;4.45;;
75044;SDS011;63614;56.026;35.960;2022-10-16T05:51:42;7.97;;;4.00;;
75044;SDS011;63614;56.026;35.960;2022-10-16T05:54:08;8.20;;;4.70;;
75044;SDS011;63614;56.026;35.960;2022-10-16T05:56:34;9.43;;;4.78;;
75044;SDS011;63614;56.026;35.960;2022-10-16T05:59:00;17.17;;;4.57;;
75044;SDS011;63614;56.026;35.960;2022-10-16T06:01:26;11.20;;;4.80;;
75044;SDS011;63614;56.026;35.960;2022-10-16T06:03:51;21.35;;;5.13;;
75044;SDS011;63614;56.026;35.960;2022-10-16T06:06:19;11.05;;;4.45;;
75044;SDS011;63614;56.026;35.960;2022-10-16T06:08:47;11.25;;;4.55;;
75044;SDS011;63614;56.026;35.960;2022-10-16T06:11:18;13.70;;;4.55;;
75044;SDS011;63614;56.026;35.960;2022-10-16T06:13:48;8.43;;;4.18;;
75044;SDS011;63614;56.026;35.960;2022-10-16T06:16:18;14.63;;;4.40;;
75044;SDS011;63614;56.026;35.960;2022-10-16T06:18:44;9.98;;;4.65;;
75044;SDS011;63614;56.026;35.960;2022-10-16T06:21:11;12.40;;;4.70;;
75044;SDS011;63614;56.026;35.960;2022-10-16T06:23:39;11.02;;;4.30;;
75044;SDS011;63614;56.026;35.960;2022-10-16T06:26:05;11.85;;;4.63;;
75044;SDS011;63614;56.026;35.960;2022-10-16T06:28:35;19.60;;;5.03;;
75044;SDS011;63614;56.026;35.960;2022-10-16T06:31:02;10.88;;;4.63;;
75044;SDS011;63614;56.026;35.960;2022-10-16T06:36:05;12.52;;;4.50;;
75044;SDS011;63614;56.026;35.960;2022-10-16T06:38:33;8.73;;;3.97;;
75044;SDS011;63614;56.026;35.960;2022-10-16T06:40:59;9.23;;;4.28;;
75044;SDS011;63614;56.026;35.960;2022-10-16T06:43:26;11.30;;;4.18;;
75044;SDS011;63614;56.026;35.960;2022-10-16T06:45:56;8.85;;;3.78;;
75044;SDS011;63614;56.026;35.960;2022-10-16T06:48:22;9.93;;;4.00;;
75044;SDS011;63614;56.026;35.960;2022-10-16T06:50:59;9.30;;;3.90;;
75044;SDS011;63614;56.026;35.960;2022-10-16T06:53:36;10.73;;;4.22;;
75044;SDS011;63614;56.026;35.960;2022-10-16T06:58:34;8.65;;;3.85;;
75044;SDS011;63614;56.026;35.960;2022-10-16T07:01:00;5.90;;;3.85;;
75044;SDS011;63614;56.026;35.960;2022-10-16T07:03:26;10.38;;;4.10;;
75044;SDS011;63614;56.026;35.960;2022-10-16T07:05:52;7.60;;;3.78;;
75044;SDS011;63614;56.026;35.960;2022-10-16T07:08:18;10.18;;;4.88;;
75044;SDS011;63614;56.026;35.960;2022-10-16T07:10:44;14.40;;;4.75;;
75044;SDS011;63614;56.026;35.960;2022-10-16T07:13:09;11.52;;;4.47;;
75044;SDS011;63614;56.026;35.960;2022-10-16T07:15:38;12.43;;;4.18;;
75044;SDS011;63614;56.026;35.960;2022-10-16T07:18:04;7.22;;;4.00;;
75044;SDS011;63614;56.026;35.960;2022-10-16T07:20:30;11.00;;;4.57;;
75044;SDS011;63614;56.026;35.960;2022-10-16T07:22:55;11.45;;;5.20;;
75044;SDS011;63614;56.026;35.960;2022-10-16T07:25:21;8.70;;;4.60;;
75044;SDS011;63614;56.026;35.960;2022-10-16T07:27:47;17.45;;;4.13;;
75044;SDS011;63614;56.026;35.960;2022-10-16T07:30:13;15.05;;;4.00;;
75044;SDS011;63614;56.026;35.960;2022-10-16T07:32:39;10.18;;;3.78;;
75044;SDS011;63614;56.026;35.960;2022-10-16T07:35:04;21.92;;;4.35;;
75044;SDS011;63614;56.026;35.960;2022-10-16T07:37:31;9.93;;;3.80;;
75044;SDS011;63614;56.026;35.960;2022-10-16T07:39:57;9.57;;;3.58;;
75044;SDS011;63614;56.026;35.960;2022-10-16T07:42:23;11.55;;;3.63;;
75044;SDS011;63614;56.026;35.960;2022-10-16T07:44:49;9.55;;;3.70;;
75044;SDS011;63614;56.026;35.960;2022-10-16T07:47:14;10.93;;;3.50;;
75044;SDS011;63614;56.026;35.960;2022-10-16T07:49:40;13.05;;;3.92;;
75044;SDS011;63614;56.026;35.960;2022-10-16T07:52:06;12.38;;;3.88;;
75044;SDS011;63614;56.026;35.960;2022-10-16T07:54:32;11.77;;;3.65;;
75044;SDS011;63614;56.026;35.960;2022-10-16T07:56:58;12.27;;;3.88;;
75044;SDS011;63614;56.026;35.960;2022-10-16T07:59:24;12.20;;;4.10;;
75044;SDS011;63614;56.026;35.960;2022-10-16T08:01:50;15.02;;;3.60;;
75044;SDS011;63614;56.026;35.960;2022-10-16T08:04:15;6.18;;;3.30;;
75044;SDS011;63614;56.026;35.960;2022-10-16T08:06:41;6.80;;;3.72;;
75044;SDS011;63614;56.026;35.960;2022-10-16T08:09:07;10.05;;;3.90;;
75044;SDS011;63614;56.026;35.960;2022-10-16T08:11:34;9.68;;;4.28;;
75044;SDS011;63614;56.026;35.960;2022-10-16T08:14:00;8.32;;;3.90;;
75044;SDS011;63614;56.026;35.960;2022-10-16T08:16:26;15.18;;;4.35;;
75044;SDS011;63614;56.026;35.960;2022-10-16T08:18:52;13.23;;;3.72;;
75044;SDS011;63614;56.026;35.960;2022-10-16T08:21:19;19.83;;;3.67;;
75044;SDS011;63614;56.026;35.960;2022-10-16T08:23:46;6.13;;;3.38;;
75044;SDS011;63614;56.026;35.960;2022-10-16T08:26:12;12.45;;;3.88;;
75044;SDS011;63614;56.026;35.960;2022-10-16T08:28:38;12.93;;;3.67;;
75044;SDS011;63614;56.026;35.960;2022-10-16T08:31:05;10.55;;;3.75;;
75044;SDS011;63614;56.026;35.960;2022-10-16T08:33:41;11.70;;;3.38;;
75044;SDS011;63614;56.026;35.960;2022-10-16T08:36:09;10.95;;;3.70;;
75044;SDS011;63614;56.026;35.960;2022-10-16T08:38:36;11.95;;;3.65;;
75044;SDS011;63614;56.026;35.960;2022-10-16T08:49:49;10.10;;;4.00;;
75044;SDS011;63614;56.026;35.960;2022-10-16T08:52:34;6.55;;;3.00;;
75044;SDS011;63614;56.026;35.960;2022-10-16T08:55:04;6.72;;;3.17;;
75044;SDS011;63614;56.026;35.960;2022-10-16T08:57:31;7.10;;;3.70;;
75044;SDS011;63614;56.026;35.960;2022-10-16T08:59:59;8.30;;;3.33;;
75044;SDS011;63614;56.026;35.960;2022-10-16T09:02:35;10.32;;;3.50;;
75044;SDS011;63614;56.026;35.960;2022-10-16T09:16:16;7.53;;;3.28;;
75044;SDS011;63614;56.026;35.960;2022-10-16T09:19:13;10.48;;;3.85;;
75044;SDS011;63614;56.026;35.960;2022-10-16T09:21:47;7.07;;;3.00;;
75044;SDS011;63614;56.026;35.960;2022-10-16T09:24:17;7.03;;;3.30;;
75044;SDS011;63614;56.026;35.960;2022-10-16T09:26:45;9.77;;;3.42;;
75044;SDS011;63614;56.026;35.960;2022-10-16T09:29:12;12.17;;;3.43;;
75044;SDS011;63614;56.026;35.960;2022-10-16T09:34:08;7.00;;;3.00;;
75044;SDS011;63614;56.026;35.960;2022-10-16T09:36:57;8.23;;;2.78;;
75044;SDS011;63614;56.026;35.960;2022-10-16T09:39:24;5.82;;;3.05;;
75044;SDS011;63614;56.026;35.960;2022-10-16T09:41:50;16.83;;;3.55;;
75044;SDS011;63614;56.026;35.960;2022-10-16T09:44:24;6.80;;;2.78;;
75044;SDS011;63614;56.026;35.960;2022-10-16T09:47:12;13.40;;;3.35;;
75044;SDS011;63614;56.026;35.960;2022-10-16T09:49:52;10.88;;;2.92;;
75044;SDS011;63614;56.026;35.960;2022-10-16T09:52:29;9.18;;;3.08;;
75044;SDS011;63614;56.026;35.960;2022-10-16T09:54:56;11.60;;;2.58;;
75044;SDS011;63614;56.026;35.960;2022-10-16T09:57:27;6.97;;;2.95;;
75044;SDS011;63614;56.026;35.960;2022-10-16T09:59:56;5.18;;;2.78;;
75044;SDS011;63614;56.026;35.960;2022-10-16T10:04:54;5.60;;;2.78;;
75044;SDS011;63614;56.026;35.960;2022-10-16T10:07:25;6.68;;;2.92;;
75044;SDS011;63614;56.026;35.960;2022-10-16T10:09:53;8.85;;;3.00;;
75044;SDS011;63614;56.026;35.960;2022-10-16T10:12:23;9.15;;;3.20;;
75044;SDS011;63614;56.026;35.960;2022-10-16T10:14:52;7.65;;;3.03;;
75044;SDS011;63614;56.026;35.960;2022-10-16T10:17:21;13.05;;;3.17;;
75044;SDS011;63614;56.026;35.960;2022-10-16T10:38:50;14.50;;;2.92;;
75044;SDS011;63614;56.026;35.960;2022-10-16T10:50:02;13.10;;;3.53;;
75044;SDS011;63614;56.026;35.960;2022-10-16T11:06:36;7.20;;;2.92;;
75044;SDS011;63614;56.026;35.960;2022-10-16T11:09:24;14.20;;;2.95;;
75044;SDS011;63614;56.026;35.960;2022-10-16T11:12:07;18.92;;;3.03;;
75044;SDS011;63614;56.026;35.960;2022-10-16T11:18:11;10.27;;;2.80;;
75044;SDS011;63614;56.026;35.960;2022-10-16T11:21:06;13.63;;;3.40;;
75044;SDS011;63614;56.026;35.960;2022-10-16T11:23:55;9.98;;;3.08;;
75044;SDS011;63614;56.026;35.960;2022-10-16T11:26:27;5.32;;;2.80;;
75044;SDS011;63614;56.026;35.960;2022-10-16T11:28:57;18.02;;;3.10;;
75044;SDS011;63614;56.026;35.960;2022-10-16T11:36:40;16.70;;;3.55;;
75044;SDS011;63614;56.026;35.960;2022-10-16T11:39:23;9.85;;;3.03;;
75044;SDS011;63614;56.026;35.960;2022-10-16T11:47:13;11.32;;;3.90;;
75044;SDS011;63614;56.026;35.960;2022-10-16T11:49:40;8.85;;;3.03;;
75044;SDS011;63614;56.026;35.960;2022-10-16T11:52:23;12.93;;;3.20;;
75044;SDS011;63614;56.026;35.960;2022-10-16T11:58:01;8.13;;;2.97;;
75044;SDS011;63614;56.026;35.960;2022-10-16T12:00:37;6.65;;;2.88;;
75044;SDS011;63614;56.026;35.960;2022-10-16T12:03:15;6.00;;;2.75;;
75044;SDS011;63614;56.026;35.960;2022-10-16T12:06:11;11.68;;;3.38;;
75044;SDS011;63614;56.026;35.960;2022-10-16T12:08:53;9.38;;;2.95;;
75044;SDS011;63614;56.026;35.960;2022-10-16T12:13:46;9.18;;;3.42;;
75044;SDS011;63614;56.026;35.960;2022-10-16T12:18:39;6.07;;;2.90;;
75044;SDS011;63614;56.026;35.960;2022-10-16T12:21:06;10.48;;;3.40;;
75044;SDS011;63614;56.026;35.960;2022-10-16T12:23:36;14.87;;;3.60;;
75044;SDS011;63614;56.026;35.960;2022-10-16T12:26:04;10.38;;;3.55;;
75044;SDS011;63614;56.026;35.960;2022-10-16T12:28:33;8.85;;;3.03;;
75044;SDS011;63614;56.026;35.960;2022-10-16T12:31:04;19.73;;;3.45;;
75044;SDS011;63614;56.026;35.960;2022-10-16T12:33:37;6.50;;;3.20;;
75044;SDS011;63614;56.026;35.960;2022-10-16T12:36:26;8.00;;;3.50;;
75044;SDS011;63614;56.026;35.960;2022-10-16T12:39:02;17.27;;;3.20;;
75044;SDS011;63614;56.026;35.960;2022-10-16T12:41:32;10.23;;;3.38;;
75044;SDS011;63614;56.026;35.960;2022-10-16T12:44:00;7.15;;;3.42;;
75044;SDS011;63614;56.026;35.960;2022-10-16T12:49:06;6.50;;;3.22;;
75044;SDS011;63614;56.026;35.960;2022-10-16T12:51:38;6.88;;;3.00;;
75044;SDS011;63614;56.026;35.960;2022-10-16T13:04:31;8.15;;;3.60;;
75044;SDS011;63614;56.026;35.960;2022-10-16T13:10:15;9.95;;;3.55;;
75044;SDS011;63614;56.026;35.960;2022-10-16T13:21:02;11.30;;;3.60;;
75044;SDS011;63614;56.026;35.960;2022-10-16T13:23:59;9.38;;;3.90;;
75044;SDS011;63614;56.026;35.960;2022-10-16T13:29:00;11.27;;;4.25;;
75044;SDS011;63614;56.026;35.960;2022-10-16T13:31:27;11.93;;;4.40;;
75044;SDS011;63614;56.026;35.960;2022-10-16T13:36:28;13.55;;;5.60;;
75044;SDS011;63614;56.026;35.960;2022-10-16T13:39:11;18.50;;;5.68;;
75044;SDS011;63614;56.026;35.960;2022-10-16T13:41:39;13.27;;;5.80;;
75044;SDS011;63614;56.026;35.960;2022-10-16T13:44:10;13.98;;;5.00;;
75044;SDS011;63614;56.026;35.960;2022-10-16T13:46:41;12.90;;;5.53;;
75044;SDS011;63614;56.026;35.960;2022-10-16T13:49:14;15.32;;;5.53;;
75044;SDS011;63614;56.026;35.960;2022-10-16T13:51:41;12.82;;;7.13;;
75044;SDS011;63614;56.026;35.960;2022-10-16T13:54:10;16.55;;;7.85;;
75044;SDS011;63614;56.026;35.960;2022-10-16T13:56:38;15.15;;;9.02;;
75044;SDS011;63614;56.026;35.960;2022-10-16T13:59:06;24.50;;;10.00;;
75044;SDS011;63614;56.026;35.960;2022-10-16T14:01:48;29.42;;;9.23;;
75044;SDS011;63614;56.026;35.960;2022-10-16T14:04:16;17.35;;;4.95;;
75044;SDS011;63614;56.026;35.960;2022-10-16T14:06:43;10.65;;;4.47;;
75044;SDS011;63614;56.026;35.960;2022-10-16T14:09:19;9.52;;;3.90;;
75044;SDS011;63614;56.026;35.960;2022-10-16T14:11:51;9.00;;;3.83;;
75044;SDS011;63614;56.026;35.960;2022-10-16T14:14:20;7.70;;;4.10;;
75044;SDS011;63614;56.026;35.960;2022-10-16T14:16:47;10.93;;;3.97;;
75044;SDS011;63614;56.026;35.960;2022-10-16T14:19:26;10.90;;;3.90;;
75044;SDS011;63614;56.026;35.960;2022-10-16T14:21:55;12.93;;;4.00;;
75044;SDS011;63614;56.026;35.960;2022-10-16T14:24:25;9.40;;;3.80;;
75044;SDS011;63614;56.026;35.960;2022-10-16T14:26:56;10.48;;;4.25;;
75044;SDS011;63614;56.026;35.960;2022-10-16T14:29:24;11.40;;;4.45;;
75044;SDS011;63614;56.026;35.960;2022-10-16T14:32:00;13.15;;;4.18;;
75044;SDS011;63614;56.026;35.960;2022-10-16T14:36:55;10.77;;;4.47;;
75044;SDS011;63614;56.026;35.960;2022-10-16T14:39:23;8.73;;;4.47;;
75044;SDS011;63614;56.026;35.960;2022-10-16T14:44:18;8.80;;;4.18;;
75044;SDS011;63614;56.026;35.960;2022-10-16T14:46:46;10.43;;;4.15;;
75044;SDS011;63614;56.026;35.960;2022-10-16T14:49:14;11.38;;;4.00;;
75044;SDS011;63614;56.026;35.960;2022-10-16T14:51:43;7.95;;;4.43;;
75044;SDS011;63614;56.026;35.960;2022-10-16T14:54:10;11.17;;;4.00;;
75044;SDS011;63614;56.026;35.960;2022-10-16T14:59:23;10.52;;;4.18;;
75044;SDS011;63614;56.026;35.960;2022-10-16T15:01:52;11.63;;;4.68;;
75044;SDS011;63614;56.026;35.960;2022-10-16T15:04:18;10.60;;;5.22;;
75044;SDS011;63614;56.026;35.960;2022-10-16T15:06:44;13.40;;;5.07;;
75044;SDS011;63614;56.026;35.960;2022-10-16T15:09:12;14.48;;;4.80;;
75044;SDS011;63614;56.026;35.960;2022-10-16T15:11:37;16.63;;;4.28;;
75044;SDS011;63614;56.026;35.960;2022-10-16T15:14:04;7.82;;;3.50;;
75044;SDS011;63614;56.026;35.960;2022-10-16T15:16:30;7.90;;;3.78;;
75044;SDS011;63614;56.026;35.960;2022-10-16T15:18:57;10.48;;;3.55;;
75044;SDS011;63614;56.026;35.960;2022-10-16T15:21:25;10.82;;;4.32;;
75044;SDS011;63614;56.026;35.960;2022-10-16T15:23:56;9.98;;;4.22;;
75044;SDS011;63614;56.026;35.960;2022-10-16T15:26:24;10.18;;;4.45;;
75044;SDS011;63614;56.026;35.960;2022-10-16T15:28:50;12.60;;;4.25;;
75044;SDS011;63614;56.026;35.960;2022-10-16T15:31:17;9.98;;;4.28;;
75044;SDS011;63614;56.026;35.960;2022-10-16T15:33:44;9.68;;;3.80;;
75044;SDS011;63614;56.026;35.960;2022-10-16T15:36:13;16.02;;;3.90;;
75044;SDS011;63614;56.026;35.960;2022-10-16T15:38:38;7.57;;;4.03;;
75044;SDS011;63614;56.026;35.960;2022-10-16T15:41:04;11.02;;;4.03;;
75044;SDS011;63614;56.026;35.960;2022-10-16T15:43:30;7.57;;;3.88;;
75044;SDS011;63614;56.026;35.960;2022-10-16T15:46:01;14.35;;;4.03;;
75044;SDS011;63614;56.026;35.960;2022-10-16T15:48:29;8.70;;;4.13;;
75044;SDS011;63614;56.026;35.960;2022-10-16T15:50:56;12.97;;;4.90;;
75044;SDS011;63614;56.026;35.960;2022-10-16T15:53:22;16.75;;;4.28;;
75044;SDS011;63614;56.026;35.960;2022-10-16T15:55:48;8.93;;;4.20;;
75044;SDS011;63614;56.026;35.960;2022-10-16T15:58:14;10.50;;;4.28;;
75044;SDS011;63614;56.026;35.960;2022-10-16T16:00:40;17.35;;;5.10;;
75044;SDS011;63614;56.026;35.960;2022-10-16T16:03:06;14.10;;;5.07;;
75044;SDS011;63614;56.026;35.960;2022-10-16T16:05:32;16.08;;;5.45;;
75044;SDS011;63614;56.026;35.960;2022-10-16T16:07:58;15.48;;;5.00;;
75044;SDS011;63614;56.026;35.960;2022-10-16T16:10:24;11.85;;;4.90;;
75044;SDS011;63614;56.026;35.960;2022-10-16T16:12:50;13.57;;;5.68;;
75044;SDS011;63614;56.026;35.960;2022-10-16T16:15:21;14.35;;;5.25;;
75044;SDS011;63614;56.026;35.960;2022-10-16T16:17:47;11.38;;;5.05;;
75044;SDS011;63614;56.026;35.960;2022-10-16T16:20:13;14.90;;;5.30;;
75044;SDS011;63614;56.026;35.960;2022-10-16T16:22:39;18.02;;;5.50;;
75044;SDS011;63614;56.026;35.960;2022-10-16T16:25:05;12.60;;;4.70;;
75044;SDS011;63614;56.026;35.960;2022-10-16T16:27:31;11.25;;;4.00;;
75044;SDS011;63614;56.026;35.960;2022-10-16T16:30:00;8.93;;;4.65;;
75044;SDS011;63614;56.026;35.960;2022-10-16T16:32:28;9.40;;;3.97;;
75044;SDS011;63614;56.026;35.960;2022-10-16T16:34:55;14.50;;;4.60;;
75044;SDS011;63614;56.026;35.960;2022-10-16T16:37:20;13.90;;;4.57;;
75044;SDS011;63614;56.026;35.960;2022-10-16T16:39:46;21.33;;;4.50;;
75044;SDS011;63614;56.026;35.960;2022-10-16T16:42:12;11.68;;;4.13;;
75044;SDS011;63614;56.026;35.960;2022-10-16T16:44:38;16.92;;;4.68;;
75044;SDS011;63614;56.026;35.960;2022-10-16T16:47:05;12.55;;;4.50;;
75044;SDS011;63614;56.026;35.960;2022-10-16T16:49:34;17.35;;;4.13;;
75044;SDS011;63614;56.026;35.960;2022-10-16T16:52:00;12.45;;;5.05;;
75044;SDS011;63614;56.026;35.960;2022-10-16T16:54:26;18.65;;;5.82;;
75044;SDS011;63614;56.026;35.960;2022-10-16T16:56:52;11.75;;;5.15;;
75044;SDS011;63614;56.026;35.960;2022-10-16T16:59:19;16.08;;;5.18;;
75044;SDS011;63614;56.026;35.960;2022-10-16T17:01:50;9.43;;;5.03;;
75044;SDS011;63614;56.026;35.960;2022-10-16T17:04:17;10.60;;;4.68;;
75044;SDS011;63614;56.026;35.960;2022-10-16T17:06:44;12.32;;;4.50;;
75044;SDS011;63614;56.026;35.960;2022-10-16T17:09:10;14.15;;;4.65;;
75044;SDS011;63614;56.026;35.960;2022-10-16T17:11:40;9.25;;;3.70;;
75044;SDS011;63614;56.026;35.960;2022-10-16T17:14:08;8.60;;;4.20;;
75044;SDS011;63614;56.026;35.960;2022-10-16T17:16:35;11.98;;;4.18;;